Time;durP1;ratioP1;P1;durP2;ratioP2;P2;SDS_P1;SDS_P2;PMS_P1;PMS_P2;Temp;Humidity;BMP_temperature;BMP_pressure;BME280_temperature;BME280_humidity;BME280_pressure;Samples;Min_cycle;Max_cycle;Signal;HPM_P1;HPM_P2
2023/03/09 00:02:34;;;;;;;14.00;7.45;;;;;;;;;;4975027;28;20027;-90
2023/03/09 00:05:00;;;;;;;16.38;8.93;;;;;;;;;;4996112;28;20035;-92
2023/03/09 00:07:32;;;;;;;19.92;9.73;;;;;;;;;;4976313;28;20031;-90
2023/03/09 00:10:03;;;;;;;19.88;10.80;;;;;;;;;;4975132;28;20031;-92
2023/03/09 00:12:35;;;;;;;16.10;9.50;;;;;;;;;;4973872;28;20057;-91
2023/03/09 00:15:07;;;;;;;18.00;9.82;;;;;;;;;;4973387;28;20073;-92
2023/03/09 00:17:33;;;;;;;24.50;11.27;;;;;;;;;;4974178;28;20031;-92
2023/03/09 00:20:17;;;;;;;18.38;10.93;;;;;;;;;;4985279;28;20045;-91
2023/03/09 00:23:04;;;;;;;21.88;11.18;;;;;;;;;;4979447;28;20094;-92
2023/03/09 00:25:36;;;;;;;20.02;11.00;;;;;;;;;;4974252;28;20097;-92
2023/03/09 00:28:08;;;;;;;16.90;9.77;;;;;;;;;;4974307;28;20142;-89
2023/03/09 00:30:46;;;;;;;13.75;7.43;;;;;;;;;;4974253;28;20037;-92
2023/03/09 00:33:32;;;;;;;12.38;7.85;;;;;;;;;;4974794;28;20502;-94
2023/03/09 00:36:04;;;;;;;11.93;8.15;;;;;;;;;;4973942;28;20081;-90
2023/03/09 00:38:30;;;;;;;13.95;8.50;;;;;;;;;;4973846;28;20121;-90
2023/03/09 00:41:06;;;;;;;15.07;8.88;;;;;;;;;;4973801;28;20038;-91
2023/03/09 00:43:38;;;;;;;15.13;9.20;;;;;;;;;;4974479;28;20030;-91
2023/03/09 00:46:04;;;;;;;14.05;7.97;;;;;;;;;;4973330;28;20054;-91
2023/03/09 00:48:30;;;;;;;12.80;8.00;;;;;;;;;;4973994;28;20542;-89
2023/03/09 00:51:42;;;;;;;15.63;9.40;;;;;;;;;;4973499;28;20050;-90
2023/03/09 00:57:05;;;;;;;13.80;9.13;;;;;;;;;;4975872;28;20039;-92
2023/03/09 00:59:31;;;;;;;13.60;8.75;;;;;;;;;;4974022;28;20027;-92
2023/03/09 01:02:00;;;;;;;16.80;10.30;;;;;;;;;;4973661;28;20484;-91
2023/03/09 01:04:29;;;;;;;17.95;10.65;;;;;;;;;;4974011;28;20023;-92
2023/03/09 01:10:07;;;;;;;18.38;11.13;;;;;;;;;;4975273;28;20185;-93
2023/03/09 01:12:39;;;;;;;19.85;11.30;;;;;;;;;;4982521;28;20047;-92
2023/03/09 01:15:15;;;;;;;20.38;11.35;;;;;;;;;;4996351;28;20039;-90
2023/03/09 01:17:50;;;;;;;22.23;11.70;;;;;;;;;;4975595;28;20049;-93
2023/03/09 01:20:19;;;;;;;18.52;9.68;;;;;;;;;;4974323;28;20443;-94
2023/03/09 01:22:48;;;;;;;19.23;10.25;;;;;;;;;;4986182;28;20019;-91
2023/03/09 01:25:20;;;;;;;19.70;10.75;;;;;;;;;;4989252;28;20041;-96
2023/03/09 01:27:46;;;;;;;18.52;10.63;;;;;;;;;;4977191;28;20475;-93
2023/03/09 01:30:16;;;;;;;16.98;9.93;;;;;;;;;;4976988;28;20026;-92
2023/03/09 01:32:45;;;;;;;21.10;11.40;;;;;;;;;;4976965;28;20027;-92
2023/03/09 01:35:11;;;;;;;15.57;8.55;;;;;;;;;;4977306;28;20023;-92
2023/03/09 01:37:37;;;;;;;18.48;10.48;;;;;;;;;;4977488;28;20031;-92
2023/03/09 01:40:10;;;;;;;15.15;7.78;;;;;;;;;;4977409;28;20042;-92
2023/03/09 01:45:39;;;;;;;11.47;6.70;;;;;;;;;;4978130;28;20089;-92
2023/03/09 01:48:14;;;;;;;6.43;4.05;;;;;;;;;;4976657;28;20039;-92
2023/03/09 01:50:44;;;;;;;6.25;3.85;;;;;;;;;;4976853;28;20034;-92
2023/03/09 01:53:20;;;;;;;7.65;4.45;;;;;;;;;;4976806;28;20039;-92
2023/03/09 01:55:52;;;;;;;7.85;3.90;;;;;;;;;;4976367;28;20073;-92
2023/03/09 01:58:30;;;;;;;6.60;3.65;;;;;;;;;;4976761;28;20042;-92
2023/03/09 02:00:56;;;;;;;8.75;4.28;;;;;;;;;;4977482;28;20114;-92
2023/03/09 02:03:25;;;;;;;6.88;3.70;;;;;;;;;;4976497;28;20077;-91
2023/03/09 02:06:03;;;;;;;6.05;4.05;;;;;;;;;;4976508;28;20026;-93
2023/03/09 02:08:33;;;;;;;7.28;4.20;;;;;;;;;;4976578;28;20459;-92
2023/03/09 02:11:13;;;;;;;7.20;3.95;;;;;;;;;;4975524;28;20051;-92
2023/03/09 02:13:46;;;;;;;7.25;4.50;;;;;;;;;;4976216;28;20039;-92
2023/03/09 02:16:18;;;;;;;7.75;4.45;;;;;;;;;;4976580;28;20030;-91
2023/03/09 02:18:48;;;;;;;5.97;3.75;;;;;;;;;;4976429;28;20399;-95
2023/03/09 02:21:44;;;;;;;8.45;4.35;;;;;;;;;;4976408;28;20046;-92
2023/03/09 02:24:36;;;;;;;9.60;6.95;;;;;;;;;;4995787;28;20031;-91
2023/03/09 02:27:24;;;;;;;10.02;6.95;;;;;;;;;;4985881;28;20050;-90
2023/03/09 02:29:57;;;;;;;11.05;7.43;;;;;;;;;;4979987;28;20073;-92
2023/03/09 02:32:23;;;;;;;11.90;7.35;;;;;;;;;;4975806;28;20039;-92
2023/03/09 02:34:55;;;;;;;12.40;6.85;;;;;;;;;;4975661;28;20027;-90
2023/03/09 02:37:33;;;;;;;10.30;6.82;;;;;;;;;;4975772;28;20038;-90
2023/03/09 02:40:05;;;;;;;11.52;6.82;;;;;;;;;;4975334;28;20073;-91
2023/03/09 02:42:34;;;;;;;12.75;7.78;;;;;;;;;;4976990;28;20173;-91
2023/03/09 02:45:03;;;;;;;11.05;6.45;;;;;;;;;;4976079;28;20113;-91
2023/03/09 02:47:29;;;;;;;9.73;6.93;;;;;;;;;;4975537;28;20026;-90
2023/03/09 02:49:55;;;;;;;11.38;7.20;;;;;;;;;;4975671;28;20033;-92
2023/03/09 02:52:22;;;;;;;12.52;7.40;;;;;;;;;;4975474;28;20038;-91
2023/03/09 02:54:51;;;;;;;9.10;5.63;;;;;;;;;;4975619;28;20023;-92
2023/03/09 02:57:20;;;;;;;8.00;5.07;;;;;;;;;;4975476;28;20042;-91
2023/03/09 02:59:48;;;;;;;7.68;3.40;;;;;;;;;;4975406;28;20113;-91
2023/03/09 03:02:15;;;;;;;4.32;2.30;;;;;;;;;;4976394;28;20034;-91
2023/03/09 03:07:48;;;;;;;6.97;2.90;;;;;;;;;;4976755;28;20103;-92
2023/03/09 03:10:20;;;;;;;6.40;3.00;;;;;;;;;;4975316;28;20495;-91
2023/03/09 03:12:52;;;;;;;5.40;3.38;;;;;;;;;;4975278;28;20115;-92
2023/03/09 03:15:21;;;;;;;6.18;2.88;;;;;;;;;;4974916;28;20027;-90
2023/03/09 03:17:50;;;;;;;5.13;2.38;;;;;;;;;;4975254;28;20027;-91
2023/03/09 03:20:16;;;;;;;5.68;2.90;;;;;;;;;;4975083;28;20042;-91
2023/03/09 03:22:44;;;;;;;7.53;2.85;;;;;;;;;;4974915;28;20042;-89
2023/03/09 03:28:21;;;;;;;10.07;4.07;;;;;;;;;;4981741;28;20046;-91
2023/03/09 03:30:47;;;;;;;;;;;;;;;;;;4992221;28;20027;-91
2023/03/09 03:33:13;;;;;;;9.07;4.90;;;;;;;;;;4993966;28;19901;-90
2023/03/09 03:35:49;;;;;;;7.28;4.65;;;;;;;;;;4995040;28;20038;-91
2023/03/09 03:38:35;;;;;;;9.70;4.95;;;;;;;;;;4976615;28;20034;-91
2023/03/09 03:41:04;;;;;;;7.75;4.50;;;;;;;;;;4961171;28;20514;-92
2023/03/09 03:43:30;;;;;;;8.77;4.93;;;;;;;;;;4974649;28;20027;-92
2023/03/09 03:45:56;;;;;;;7.05;4.22;;;;;;;;;;4974427;28;20034;-91
2023/03/09 03:48:28;;;;;;;9.00;5.72;;;;;;;;;;4974653;28;20023;-90
2023/03/09 03:50:54;;;;;;;8.85;5.20;;;;;;;;;;4974552;28;20033;-90
2023/03/09 03:53:24;;;;;;;9.23;5.10;;;;;;;;;;4974312;28;20023;-91
2023/03/09 03:55:53;;;;;;;10.15;5.45;;;;;;;;;;4974435;28;20031;-92
2023/03/09 03:58:21;;;;;;;8.82;6.07;;;;;;;;;;4974706;28;20027;-89
2023/03/09 04:00:48;;;;;;;11.38;6.82;;;;;;;;;;4974358;28;20039;-92
2023/03/09 04:03:20;;;;;;;11.73;6.50;;;;;;;;;;4974512;28;20027;-91
2023/03/09 04:05:51;;;;;;;9.98;6.47;;;;;;;;;;4974240;28;20031;-91
2023/03/09 04:08:20;;;;;;;10.80;6.65;;;;;;;;;;4974196;28;20074;-91
2023/03/09 04:10:46;;;;;;;11.30;6.78;;;;;;;;;;4973851;28;20130;-91
2023/03/09 04:13:15;;;;;;;9.65;5.70;;;;;;;;;;4974730;28;20041;-92
2023/03/09 04:15:43;;;;;;;12.48;7.00;;;;;;;;;;4974121;28;20037;-91
2023/03/09 04:18:10;;;;;;;9.88;6.93;;;;;;;;;;4974365;28;20031;-91
2023/03/09 04:20:42;;;;;;;6.55;5.00;;;;;;;;;;4974431;28;20102;-92
2023/03/09 04:23:18;;;;;;;10.43;6.57;;;;;;;;;;4973920;28;20031;-91
2023/03/09 04:25:53;;;;;;;8.32;5.50;;;;;;;;;;4974156;28;20038;-90
2023/03/09 04:28:22;;;;;;;10.15;6.45;;;;;;;;;;4975087;28;20065;-92
2023/03/09 04:30:51;;;;;;;10.40;7.05;;;;;;;;;;4976007;28;20027;-92
2023/03/09 04:33:17;;;;;;;12.40;7.43;;;;;;;;;;4980027;28;20542;-91
2023/03/09 04:35:45;;;;;;;12.00;7.60;;;;;;;;;;4974135;28;20139;-90
2023/03/09 04:38:17;;;;;;;10.00;6.20;;;;;;;;;;4974139;28;20046;-91
2023/03/09 04:40:43;;;;;;;9.95;6.75;;;;;;;;;;4973806;28;20039;-90
2023/03/09 04:43:12;;;;;;;10.82;5.80;;;;;;;;;;4973937;28;20022;-91
2023/03/09 04:45:41;;;;;;;10.45;6.40;;;;;;;;;;4997454;28;20034;-92
2023/03/09 04:48:10;;;;;;;9.15;5.45;;;;;;;;;;4976694;28;20093;-92
2023/03/09 04:50:36;;;;;;;11.40;7.40;;;;;;;;;;4974157;28;20034;-91
2023/03/09 04:53:02;;;;;;;10.63;6.95;;;;;;;;;;4975025;28;20097;-89
2023/03/09 04:55:49;;;;;;;10.23;6.32;;;;;;;;;;4973441;28;20042;-91
2023/03/09 04:58:15;;;;;;;8.57;6.03;;;;;;;;;;4974587;28;20031;-91
2023/03/09 05:00:45;;;;;;;11.82;7.78;;;;;;;;;;4974157;28;20134;-90
2023/03/09 05:03:23;;;;;;;14.52;8.57;;;;;;;;;;4978080;28;20360;-95
2023/03/09 05:05:50;;;;;;;12.77;7.63;;;;;;;;;;4977525;28;20023;-91
2023/03/09 05:11:27;;;;;;;14.13;8.32;;;;;;;;;;4915725;28;20138;-91
2023/03/09 05:13:59;;;;;;;11.32;7.15;;;;;;;;;;4977531;28;20030;-92
2023/03/09 05:16:31;;;;;;;14.40;8.70;;;;;;;;;;4977358;28;20117;-92
2023/03/09 05:19:00;;;;;;;13.60;8.32;;;;;;;;;;4977770;28;20026;-91
2023/03/09 05:21:29;;;;;;;15.48;8.88;;;;;;;;;;4976933;28;20495;-90
2023/03/09 05:23:55;;;;;;;12.13;7.57;;;;;;;;;;4977516;28;20506;-91
2023/03/09 05:26:50;;;;;;;12.90;7.93;;;;;;;;;;4977282;28;20034;-94
2023/03/09 05:32:39;;;;;;;11.35;6.75;;;;;;;;;;4934408;29;20049;-92
2023/03/09 05:35:05;;;;;;;12.57;7.93;;;;;;;;;;4938052;28;20033;-90
2023/03/09 05:37:35;;;;;;;11.55;9.10;;;;;;;;;;4958641;29;20031;-90
2023/03/09 05:40:04;;;;;;;18.10;9.93;;;;;;;;;;4957071;29;20086;-91
2023/03/09 05:42:30;;;;;;;16.38;10.45;;;;;;;;;;4964510;28;20033;-90
2023/03/09 05:50:48;;;;;;;14.85;9.07;;;;;;;;;;4979444;28;20029;-95
2023/03/09 05:53:17;;;;;;;16.40;10.25;;;;;;;;;;4979321;28;20031;-95
2023/03/09 05:55:46;;;;;;;18.42;10.43;;;;;;;;;;4997574;28;20035;-89
2023/03/09 05:58:27;;;;;;;17.13;10.45;;;;;;;;;;4979482;28;20035;-93
2023/03/09 06:00:53;;;;;;;16.70;11.70;;;;;;;;;;4966639;28;20389;-91
2023/03/09 06:03:22;;;;;;;17.73;11.65;;;;;;;;;;4976402;28;20019;-89
2023/03/09 06:08:55;;;;;;;18.52;10.75;;;;;;;;;;4980267;28;20025;-91
2023/03/09 06:11:40;;;;;;;16.00;9.20;;;;;;;;;;4981237;28;20043;-93
2023/03/09 06:14:33;;;;;;;15.95;10.50;;;;;;;;;;4983533;28;20127;-94
2023/03/09 06:19:53;;;;;;;16.35;9.75;;;;;;;;;;5385068;23;20047;-93
2023/03/09 06:22:33;;;;;;;17.95;9.73;;;;;;;;;;4959140;29;20038;-95
2023/03/09 06:25:07;;;;;;;16.00;10.00;;;;;;;;;;4941556;29;20028;-91
2023/03/09 06:27:42;;;;;;;19.10;11.40;;;;;;;;;;4941213;29;20114;-91
2023/03/09 06:30:08;;;;;;;16.00;9.52;;;;;;;;;;4941755;29;20110;-91
2023/03/09 06:32:44;;;;;;;14.02;8.38;;;;;;;;;;4942043;29;20027;-90
2023/03/09 06:35:16;;;;;;;13.30;6.93;;;;;;;;;;4941798;29;20035;-90
2023/03/09 06:37:45;;;;;;;11.30;6.68;;;;;;;;;;4954421;29;20050;-90
2023/03/09 06:40:12;;;;;;;11.05;6.57;;;;;;;;;;4941923;29;20086;-92
2023/03/09 06:42:42;;;;;;;15.35;9.18;;;;;;;;;;4942839;29;20054;-89
2023/03/09 06:45:11;;;;;;;16.23;9.77;;;;;;;;;;4940614;29;20118;-92
2023/03/09 06:47:38;;;;;;;13.88;7.90;;;;;;;;;;4940487;29;20404;-91
2023/03/09 06:50:04;;;;;;;11.75;6.53;;;;;;;;;;4940606;29;20031;-91
2023/03/09 06:52:31;;;;;;;11.45;6.60;;;;;;;;;;4940298;29;20932;-89
2023/03/09 06:55:00;;;;;;;9.45;6.03;;;;;;;;;;4940514;29;20495;-91
2023/03/09 06:57:26;;;;;;;6.00;3.97;;;;;;;;;;4940198;29;20063;-89
2023/03/09 06:59:52;;;;;;;7.18;4.30;;;;;;;;;;4940556;29;20046;-92
2023/03/09 07:02:21;;;;;;;7.18;4.90;;;;;;;;;;4940357;29;20054;-95
2023/03/09 07:04:48;;;;;;;8.23;4.88;;;;;;;;;;4948370;29;20031;-94
2023/03/09 07:07:15;;;;;;;6.43;4.88;;;;;;;;;;4972546;28;20047;-94
2023/03/09 07:13:08;;;;;;;11.10;5.90;;;;;;;;;;4956385;29;20042;-92
2023/03/09 07:15:37;;;;;;;8.70;4.60;;;;;;;;;;4888725;29;20065;-91
2023/03/09 07:18:09;;;;;;;9.73;5.53;;;;;;;;;;4892221;29;20041;-94
2023/03/09 07:24:08;;;;;;;13.35;7.88;;;;;;;;;;4935960;29;20099;-90
2023/03/09 07:26:34;;;;;;;14.93;8.63;;;;;;;;;;4920011;29;20035;-91
2023/03/09 07:29:30;;;;;;;21.25;10.70;;;;;;;;;;4920032;29;20024;-93
2023/03/09 07:32:03;;;;;;;11.15;6.50;;;;;;;;;;4936405;29;20028;-91
2023/03/09 07:34:31;;;;;;;10.50;5.32;;;;;;;;;;4919833;29;20071;-91
2023/03/09 07:36:58;;;;;;;9.15;4.88;;;;;;;;;;4920709;29;20031;-91
2023/03/09 07:39:24;;;;;;;10.52;4.80;;;;;;;;;;4934641;29;20024;-91
2023/03/09 07:41:50;;;;;;;9.38;5.32;;;;;;;;;;4923182;29;20568;-92
2023/03/09 07:44:20;;;;;;;7.32;5.03;;;;;;;;;;4919659;29;20053;-92
2023/03/09 07:46:46;;;;;;;9.70;5.13;;;;;;;;;;4930108;29;20028;-91
2023/03/09 07:49:46;;;;;;;7.35;4.53;;;;;;;;;;4955954;29;20400;-91
2023/03/09 07:52:07;;;;;;;10.10;4.95;;;;;;;;;;4956011;28;20110;-91
2023/03/09 07:54:33;;;;;;;6.85;5.25;;;;;;;;;;4955407;29;20027;-91
2023/03/09 07:57:02;;;;;;;8.32;5.10;;;;;;;;;;4955108;29;20487;-91
2023/03/09 07:59:29;;;;;;;10.88;5.22;;;;;;;;;;4955181;29;20487;-90
2023/03/09 08:01:55;;;;;;;12.57;5.63;;;;;;;;;;4955016;29;20035;-90
2023/03/09 08:04:21;;;;;;;9.77;5.22;;;;;;;;;;4955056;29;20027;-91
2023/03/09 08:06:50;;;;;;;7.78;4.40;;;;;;;;;;4954990;29;20033;-89
2023/03/09 08:09:17;;;;;;;9.35;4.78;;;;;;;;;;4955690;29;20380;-92
2023/03/09 08:11:49;;;;;;;5.78;3.30;;;;;;;;;;4955279;29;20061;-89
2023/03/09 08:14:15;;;;;;;6.90;3.35;;;;;;;;;;4955663;29;20054;-91
2023/03/09 08:16:45;;;;;;;4.35;1.85;;;;;;;;;;4974831;28;20019;-90
2023/03/09 08:19:25;;;;;;;5.45;1.60;;;;;;;;;;4971855;28;20034;-93
2023/03/09 08:21:54;;;;;;;3.80;1.50;;;;;;;;;;4992457;28;20058;-93
2023/03/09 08:24:24;;;;;;;4.60;2.30;;;;;;;;;;4959915;28;20170;-94
2023/03/09 08:29:24;;;;;;;5.20;1.08;;;;;;;;;;5079374;23;20443;-91
2023/03/09 08:31:50;;;;;;;1.48;0.70;;;;;;;;;;4973910;28;20031;-89
2023/03/09 08:34:19;;;;;;;4.45;0.80;;;;;;;;;;4974191;28;20031;-92
2023/03/09 08:36:45;;;;;;;2.60;0.60;;;;;;;;;;4976475;28;20034;-90
2023/03/09 08:39:11;;;;;;;3.80;0.75;;;;;;;;;;4995457;28;20030;-91
2023/03/09 08:41:38;;;;;;;1.80;0.60;;;;;;;;;;4999997;28;20114;-93
2023/03/09 08:44:04;;;;;;;3.00;0.60;;;;;;;;;;5005505;28;20031;-91
2023/03/09 08:46:36;;;;;;;2.60;0.60;;;;;;;;;;4983107;28;20030;-92
2023/03/09 08:49:02;;;;;;;7.17;1.90;;;;;;;;;;4978652;28;20034;-92
2023/03/09 08:51:29;;;;;;;1.67;0.80;;;;;;;;;;4961862;28;20030;-89
2023/03/09 08:54:00;;;;;;;4.28;1.65;;;;;;;;;;4978443;28;20041;-92
2023/03/09 08:56:27;;;;;;;1.83;0.70;;;;;;;;;;4962275;28;20118;-89
2023/03/09 08:58:53;;;;;;;5.50;0.90;;;;;;;;;;4961741;28;20035;-91
2023/03/09 09:01:19;;;;;;;3.08;0.90;;;;;;;;;;4977868;28;20073;-92
2023/03/09 09:03:45;;;;;;;5.13;1.05;;;;;;;;;;4977879;28;20092;-90
2023/03/09 09:06:15;;;;;;;3.60;1.00;;;;;;;;;;4961618;28;20038;-91
2023/03/09 09:08:44;;;;;;;3.50;0.80;;;;;;;;;;4961364;28;20027;-89
2023/03/09 09:11:14;;;;;;;1.95;0.52;;;;;;;;;;4977691;28;20022;-91
2023/03/09 09:13:41;;;;;;;5.65;2.78;;;;;;;;;;4961501;28;20027;-89
2023/03/09 09:16:08;;;;;;;4.85;2.83;;;;;;;;;;4962341;28;20078;-91
2023/03/09 09:18:38;;;;;;;8.02;3.30;;;;;;;;;;4961645;28;20030;-91
2023/03/09 09:21:07;;;;;;;6.93;3.25;;;;;;;;;;4961329;28;20062;-91
2023/03/09 09:23:34;;;;;;;6.82;3.70;;;;;;;;;;4977810;28;20094;-91
2023/03/09 09:26:00;;;;;;;8.02;3.97;;;;;;;;;;4977123;28;20041;-91
2023/03/09 09:28:26;;;;;;;6.25;3.65;;;;;;;;;;4982882;28;20079;-90
2023/03/09 09:30:53;;;;;;;8.05;4.15;;;;;;;;;;4992907;28;20035;-91
2023/03/09 09:33:19;;;;;;;7.22;4.30;;;;;;;;;;4981638;28;20018;-91
2023/03/09 09:35:59;;;;;;;8.70;4.30;;;;;;;;;;4980641;28;20038;-91
2023/03/09 09:38:26;;;;;;;8.32;5.18;;;;;;;;;;4981710;28;20422;-93
2023/03/09 09:40:54;;;;;;;8.25;4.70;;;;;;;;;;4980468;28;20045;-90
2023/03/09 09:43:22;;;;;;;9.40;4.93;;;;;;;;;;4982167;28;20046;-90
2023/03/09 09:45:49;;;;;;;9.98;5.30;;;;;;;;;;4993781;28;20053;-91
2023/03/09 09:48:17;;;;;;;10.60;4.97;;;;;;;;;;4982474;28;20026;-90
2023/03/09 09:50:47;;;;;;;10.02;4.68;;;;;;;;;;4980572;28;20030;-91
2023/03/09 09:53:24;;;;;;;6.15;2.20;;;;;;;;;;4979980;28;20032;-91
2023/03/09 09:55:50;;;;;;;7.80;4.00;;;;;;;;;;4979969;28;20100;-91
2023/03/09 09:58:23;;;;;;;9.77;3.88;;;;;;;;;;4979820;28;20435;-88
2023/03/09 10:00:51;;;;;;;5.90;2.45;;;;;;;;;;4980707;28;20388;-90
2023/03/09 10:03:40;;;;;;;1.80;0.65;;;;;;;;;;4979848;28;20030;-89
2023/03/09 10:06:06;;;;;;;3.85;0.70;;;;;;;;;;4967436;28;20034;-91
2023/03/09 10:08:38;;;;;;;3.17;0.82;;;;;;;;;;4980172;28;20030;-89
2023/03/09 10:11:13;;;;;;;5.45;0.80;;;;;;;;;;4979536;28;20037;-90
2023/03/09 10:13:41;;;;;;;13.77;1.77;;;;;;;;;;4980275;28;20038;-91
2023/03/09 10:16:12;;;;;;;15.48;1.63;;;;;;;;;;4979408;28;20069;-88
2023/03/09 10:18:40;;;;;;;10.15;0.98;;;;;;;;;;4979776;28;20026;-91
2023/03/09 10:21:14;;;;;;;6.65;0.90;;;;;;;;;;4979432;28;20423;-88
2023/03/09 10:23:40;;;;;;;;;;;;;;;;;;4982878;28;20022;-93
2023/03/09 10:26:24;;;;;;;11.30;0.93;;;;;;;;;;4980959;28;19905;-96
2023/03/09 10:29:07;;;;;;;5.18;0.70;;;;;;;;;;4977897;28;20113;-96
2023/03/09 10:31:40;;;;;;;3.40;0.52;;;;;;;;;;4976097;28;20039;-92
2023/03/09 10:34:27;;;;;;;4.27;0.50;;;;;;;;;;4976917;28;20050;-90
2023/03/09 10:37:00;;;;;;;7.85;0.55;;;;;;;;;;4967245;28;20050;-94
2023/03/09 10:39:30;;;;;;;3.97;0.40;;;;;;;;;;4983692;28;20038;-90
2023/03/09 10:41:59;;;;;;;5.82;0.32;;;;;;;;;;4983758;28;20448;-88
2023/03/09 10:44:25;;;;;;;1.42;0.38;;;;;;;;;;4975773;28;20033;-90
2023/03/09 10:47:01;;;;;;;1.30;0.47;;;;;;;;;;4975818;28;20112;-91
2023/03/09 10:49:27;;;;;;;3.10;0.60;;;;;;;;;;4987409;28;20031;-90
2023/03/09 10:52:00;;;;;;;3.90;0.38;;;;;;;;;;4976043;28;20029;-90
2023/03/09 10:54:27;;;;;;;4.13;0.55;;;;;;;;;;4976068;28;20483;-89
2023/03/09 10:56:53;;;;;;;1.35;0.50;;;;;;;;;;4975521;28;20069;-91
2023/03/09 10:59:22;;;;;;;1.90;0.50;;;;;;;;;;4974825;28;20092;-90
2023/03/09 11:01:49;;;;;;;2.90;0.50;;;;;;;;;;4975204;28;20487;-89
2023/03/09 11:04:27;;;;;;;3.42;0.73;;;;;;;;;;4975287;28;20106;-90
2023/03/09 11:06:54;;;;;;;3.10;0.75;;;;;;;;;;4975487;28;20038;-90
2023/03/09 11:09:22;;;;;;;1.65;0.38;;;;;;;;;;4975185;28;20045;-90
2023/03/09 11:11:49;;;;;;;1.30;0.45;;;;;;;;;;4975458;28;20099;-90
2023/03/09 11:14:25;;;;;;;0.98;0.30;;;;;;;;;;4975020;28;20033;-89
2023/03/09 11:16:53;;;;;;;3.00;0.40;;;;;;;;;;4975357;28;20031;-88
2023/03/09 11:19:19;;;;;;;0.55;0.30;;;;;;;;;;4971591;28;20023;-88
2023/03/09 11:22:00;;;;;;;1.08;0.30;;;;;;;;;;4955649;29;20046;-89
2023/03/09 11:24:46;;;;;;;2.35;0.30;;;;;;;;;;4955551;29;20023;-90
2023/03/09 11:27:27;;;;;;;1.67;0.30;;;;;;;;;;4955669;29;20046;-88
2023/03/09 11:29:57;;;;;;;0.63;0.28;;;;;;;;;;4955685;29;20109;-89
2023/03/09 11:32:23;;;;;;;1.02;0.40;;;;;;;;;;4955513;29;20141;-89
2023/03/09 11:34:50;;;;;;;1.55;0.25;;;;;;;;;;4955532;29;20062;-89
2023/03/09 11:37:16;;;;;;;1.02;0.25;;;;;;;;;;4955615;29;20070;-89
2023/03/09 11:39:57;;;;;;;1.58;0.20;;;;;;;;;;4955600;29;20027;-88
2023/03/09 11:42:35;;;;;;;0.80;0.30;;;;;;;;;;4955671;29;20027;-89
2023/03/09 11:45:03;;;;;;;1.00;0.38;;;;;;;;;;4955398;29;20412;-88
2023/03/09 11:47:31;;;;;;;2.28;0.50;;;;;;;;;;4958988;29;20034;-93
2023/03/09 11:52:36;;;;;;;1.38;0.40;;;;;;;;;;5253999;23;20261;-89
2023/03/09 11:55:06;;;;;;;1.25;0.40;;;;;;;;;;4967720;28;20105;-88
2023/03/09 11:57:34;;;;;;;1.48;0.47;;;;;;;;;;4956842;29;20035;-89
2023/03/09 12:00:06;;;;;;;1.20;0.43;;;;;;;;;;4955638;29;20027;-88
2023/03/09 12:02:56;;;;;;;0.90;0.30;;;;;;;;;;4954224;29;20488;-94
2023/03/09 12:05:23;;;;;;;0.93;0.30;;;;;;;;;;4955122;29;20055;-92
2023/03/09 12:07:52;;;;;;;1.23;0.20;;;;;;;;;;4955034;29;20035;-91
2023/03/09 12:10:31;;;;;;;1.55;0.35;;;;;;;;;;4954966;29;20023;-89
2023/03/09 12:13:09;;;;;;;1.50;0.50;;;;;;;;;;4955044;29;20373;-92
2023/03/09 12:15:59;;;;;;;1.40;0.38;;;;;;;;;;4954771;29;20031;-91
2023/03/09 12:18:28;;;;;;;1.17;0.32;;;;;;;;;;4955402;29;20548;-92
2023/03/09 12:21:01;;;;;;;1.30;0.20;;;;;;;;;;4955059;29;20038;-93
2023/03/09 12:23:30;;;;;;;;;;;;;;;;;;4955696;29;20027;-90
2023/03/09 12:25:57;;;;;;;3.08;0.30;;;;;;;;;;4955251;29;19953;-91
2023/03/09 12:28:24;;;;;;;1.13;0.25;;;;;;;;;;4954975;29;20038;-91
2023/03/09 12:30:55;;;;;;;1.48;0.40;;;;;;;;;;4954826;29;20034;-93
2023/03/09 12:33:40;;;;;;;3.38;0.40;;;;;;;;;;4955179;29;20114;-92
2023/03/09 12:39:31;;;;;;;1.20;0.40;;;;;;;;;;4955961;29;20136;-92
2023/03/09 12:42:06;;;;;;;0.95;0.30;;;;;;;;;;4955732;29;20499;-95
2023/03/09 12:44:44;;;;;;;2.25;0.40;;;;;;;;;;4955984;29;20027;-90
2023/03/09 12:47:20;;;;;;;1.25;0.32;;;;;;;;;;4954873;29;20031;-89
2023/03/09 12:49:48;;;;;;;0.70;0.30;;;;;;;;;;4954903;29;20053;-89
2023/03/09 12:52:26;;;;;;;2.92;0.30;;;;;;;;;;4954716;29;20063;-91
2023/03/09 13:08:18;;;;;;;1.42;0.40;;;;;;;;;;5055242;23;19922;-89
2023/03/09 13:10:44;;;;;;;1.52;0.70;;;;;;;;;;4974771;28;20113;-91
2023/03/09 13:13:29;;;;;;;1.67;0.68;;;;;;;;;;4974896;28;20027;-92
2023/03/09 13:16:14;;;;;;;2.05;0.40;;;;;;;;;;4973784;28;20027;-89
2023/03/09 13:18:40;;;;;;;1.77;0.70;;;;;;;;;;4973828;28;20027;-91
2023/03/09 13:21:25;;;;;;;1.83;0.55;;;;;;;;;;4973722;28;20039;-90
2023/03/09 13:23:51;;;;;;;1.33;0.47;;;;;;;;;;4977149;28;20026;-91
2023/03/09 13:26:18;;;;;;;2.22;0.30;;;;;;;;;;4977317;28;20037;-91
2023/03/09 13:28:54;;;;;;;1.95;0.60;;;;;;;;;;4977924;28;20026;-91
2023/03/09 13:31:27;;;;;;;1.40;0.40;;;;;;;;;;4979684;28;20077;-92
2023/03/09 13:33:53;;;;;;;1.67;0.50;;;;;;;;;;4980223;28;20041;-90
2023/03/09 13:36:36;;;;;;;2.45;0.60;;;;;;;;;;4981816;28;20035;-96
2023/03/09 13:39:05;;;;;;;2.20;0.50;;;;;;;;;;4977296;28;20027;-89
2023/03/09 13:41:31;;;;;;;1.55;0.52;;;;;;;;;;4977451;28;20065;-90
2023/03/09 13:43:58;;;;;;;1.90;0.40;;;;;;;;;;4977689;28;20113;-89
2023/03/09 13:46:45;;;;;;;4.53;0.70;;;;;;;;;;4979268;28;20030;-92
2023/03/09 13:49:21;;;;;;;3.80;0.75;;;;;;;;;;4976970;28;20026;-91
2023/03/09 13:51:53;;;;;;;2.05;0.70;;;;;;;;;;4977990;28;20027;-92
2023/03/09 13:54:37;;;;;;;1.93;0.50;;;;;;;;;;4976732;28;20077;-90
2023/03/09 13:57:03;;;;;;;;;;;;;;;;;;4978939;28;20031;-91
2023/03/09 13:59:33;;;;;;;2.40;0.70;;;;;;;;;;4978790;28;20263;-89
2023/03/09 14:02:03;;;;;;;2.97;0.52;;;;;;;;;;4984224;28;20061;-90
2023/03/09 14:04:29;;;;;;;2.08;0.60;;;;;;;;;;4980278;28;20031;-89
2023/03/09 14:06:59;;;;;;;2.67;0.60;;;;;;;;;;4977666;28;20054;-90
2023/03/09 14:09:39;;;;;;;2.97;0.45;;;;;;;;;;4979461;28;20101;-91
2023/03/09 14:12:25;;;;;;;5.43;0.50;;;;;;;;;;4976668;28;20400;-89
2023/03/09 14:14:54;;;;;;;2.38;0.57;;;;;;;;;;4978019;28;20122;-91
2023/03/09 14:17:24;;;;;;;1.83;0.40;;;;;;;;;;4992516;28;20018;-90
2023/03/09 14:19:51;;;;;;;2.83;0.50;;;;;;;;;;4987193;28;20058;-91
2023/03/09 14:22:22;;;;;;;1.85;0.60;;;;;;;;;;4977614;28;20031;-94
2023/03/09 14:24:52;;;;;;;3.72;0.50;;;;;;;;;;4976216;28;20049;-93
2023/03/09 14:27:32;;;;;;;3.20;0.40;;;;;;;;;;4976346;28;20053;-92
2023/03/09 14:29:58;;;;;;;2.55;0.70;;;;;;;;;;4976738;28;20117;-88
2023/03/09 14:32:33;;;;;;;2.35;0.63;;;;;;;;;;4977164;28;20050;-90
2023/03/09 14:35:18;;;;;;;1.35;0.50;;;;;;;;;;4977678;28;20467;-89
2023/03/09 14:37:54;;;;;;;1.60;0.40;;;;;;;;;;4979996;28;20113;-90
2023/03/09 14:40:25;;;;;;;3.10;0.70;;;;;;;;;;4976047;28;20023;-91
2023/03/09 14:42:51;;;;;;;1.65;0.40;;;;;;;;;;4976031;28;20038;-90
2023/03/09 14:45:24;;;;;;;4.18;0.65;;;;;;;;;;4976750;28;20415;-91
2023/03/09 14:47:58;;;;;;;3.75;0.70;;;;;;;;;;4975808;28;20030;-90
2023/03/09 14:50:24;;;;;;;4.22;0.77;;;;;;;;;;4975868;28;20077;-89
2023/03/09 14:52:51;;;;;;;3.55;0.63;;;;;;;;;;4975739;28;20031;-91
2023/03/09 14:55:18;;;;;;;3.50;0.60;;;;;;;;;;4976103;28;20018;-90
2023/03/09 14:57:44;;;;;;;3.15;0.68;;;;;;;;;;4975787;28;20134;-92
2023/03/09 15:00:39;;;;;;;2.65;0.52;;;;;;;;;;4975750;28;20081;-92
2023/03/09 15:03:08;;;;;;;5.95;0.70;;;;;;;;;;4973573;28;20448;-91
2023/03/09 15:05:34;;;;;;;2.42;0.60;;;;;;;;;;4980581;28;20019;-89
2023/03/09 15:08:01;;;;;;;3.03;0.77;;;;;;;;;;4976235;28;20055;-91
2023/03/09 15:10:30;;;;;;;3.80;0.73;;;;;;;;;;4975017;28;20065;-91
2023/03/09 15:13:00;;;;;;;3.88;0.60;;;;;;;;;;4975958;28;20027;-91
2023/03/09 15:15:29;;;;;;;3.83;0.77;;;;;;;;;;4986814;28;20035;-89
2023/03/09 15:17:56;;;;;;;6.07;0.80;;;;;;;;;;4975259;28;20475;-87
2023/03/09 15:20:23;;;;;;;3.72;0.50;;;;;;;;;;4975140;28;20035;-90
2023/03/09 15:22:49;;;;;;;3.88;0.60;;;;;;;;;;4975140;28;20047;-91
2023/03/09 15:25:16;;;;;;;3.03;0.57;;;;;;;;;;4977098;28;20031;-94
2023/03/09 15:27:43;;;;;;;3.03;0.60;;;;;;;;;;4977151;28;20114;-89
2023/03/09 15:30:17;;;;;;;3.55;0.70;;;;;;;;;;4992645;28;20027;-90
2023/03/09 15:32:47;;;;;;;3.17;0.40;;;;;;;;;;4981636;28;20027;-90
2023/03/09 15:35:17;;;;;;;1.48;0.40;;;;;;;;;;4975381;28;20022;-90
2023/03/09 15:37:46;;;;;;;2.22;0.40;;;;;;;;;;4975735;28;20081;-96
2023/03/09 15:40:13;;;;;;;2.67;0.50;;;;;;;;;;4976384;28;20150;-89
2023/03/09 15:42:40;;;;;;;3.38;0.70;;;;;;;;;;4975524;28;20076;-89
2023/03/09 15:45:10;;;;;;;1.42;0.40;;;;;;;;;;4978231;28;20050;-90
2023/03/09 15:47:45;;;;;;;2.83;0.70;;;;;;;;;;4974832;28;20058;-89
2023/03/09 15:50:12;;;;;;;1.58;0.47;;;;;;;;;;4975211;28;20399;-89
2023/03/09 15:52:38;;;;;;;2.97;0.57;;;;;;;;;;4976124;28;20023;-92
2023/03/09 15:55:05;;;;;;;1.63;0.50;;;;;;;;;;4974855;28;20368;-95
2023/03/09 15:57:31;;;;;;;2.90;0.57;;;;;;;;;;4975047;28;20468;-91
2023/03/09 15:59:58;;;;;;;3.67;0.50;;;;;;;;;;4975176;28;20113;-93
2023/03/09 16:02:24;;;;;;;1.92;0.50;;;;;;;;;;4976938;28;20038;-91
2023/03/09 16:04:53;;;;;;;2.13;0.68;;;;;;;;;;4975442;28;20026;-92